Time;durP1;ratioP1;P1;durP2;ratioP2;P2;SDS_P1;SDS_P2;PMS_P1;PMS_P2;Temp;Humidity;BMP_temperature;BMP_pressure;BME280_temperature;BME280_humidity;BME280_pressure;Samples;Min_cycle;Max_cycle;Signal;HPM_P1;HPM_P2
2021/08/04 00:02:07;;;;;;;;;;;;;;;25.53;51.23;100667.59;4951644;28;1123;-74
2021/08/04 00:04:34;;;;;;;;;;;;;;;25.58;51.35;100672.53;4951624;29;1178;-72
2021/08/04 00:07:00;;;;;;;;;;;;;;;25.58;50.91;100669.03;4951776;28;1057;-72
2021/08/04 00:09:27;;;;;;;;;;;;;;;25.56;51.09;100663.84;4951587;29;1312;-71
2021/08/04 00:11:54;;;;;;;;;;;;;;;25.52;51.02;100667.75;4934042;29;1123;-72
2021/08/04 00:14:21;;;;;;;;;;;;;;;25.46;51.33;100657.56;4951730;29;1907;-72
2021/08/04 00:16:48;;;;;;;;;;;;;;;25.47;51.26;100651.28;4951396;29;854;-72
2021/08/04 00:19:15;;;;;;;;;;;;;;;25.50;51.29;100657.19;4934141;29;1191;-73
2021/08/04 00:21:41;;;;;;;;;;;;;;;25.51;51.61;100661.56;4951064;29;1313;-72
2021/08/04 00:24:08;;;;;;;;;;;;;;;25.49;51.62;100652.84;4950976;29;1129;-72
2021/08/04 00:26:35;;;;;;;;;;;;;;;25.41;51.55;100652.63;4950317;28;1316;-72
2021/08/04 00:29:02;;;;;;;;;;;;;;;25.48;51.12;100645.81;4951355;29;1165;-72
2021/08/04 00:31:28;;;;;;;;;;;;;;;25.41;50.76;100636.63;4933572;29;1203;-72
2021/08/04 00:33:55;;;;;;;;;;;;;;;25.47;50.91;100636.09;4951373;28;1910;-72
2021/08/04 00:36:22;;;;;;;;;;;;;;;25.43;51.35;100640.03;4935057;28;1571;-72
2021/08/04 00:38:48;;;;;;;;;;;;;;;25.41;51.33;100633.13;4966039;28;981;-72
2021/08/04 00:41:15;;;;;;;;;;;;;;;25.38;51.45;100633.41;4938802;28;1332;-72
2021/08/04 00:43:42;;;;;;;;;;;;;;;25.36;51.18;100625.53;4953063;28;1112;-72
2021/08/04 00:46:11;;;;;;;;;;;;;;;25.35;51.03;100623.81;4970162;28;1297;-71
2021/08/04 00:48:37;;;;;;;;;;;;;;;25.40;50.99;100626.97;4936898;28;1447;-71
2021/08/04 00:51:04;;;;;;;;;;;;;;;25.35;51.08;100631.81;4970170;28;1254;-71
2021/08/04 00:53:31;;;;;;;;;;;;;;;25.35;50.87;100623.00;4952562;28;2006;-72
2021/08/04 00:55:58;;;;;;;;;;;;;;;25.33;51.02;100615.13;4969725;28;1336;-72
2021/08/04 00:58:29;;;;;;;;;;;;;;;25.34;50.87;100615.97;4970396;28;1135;-72
2021/08/04 01:01:00;;;;;;;;;;;;;;;25.32;50.80;100623.28;4936485;28;1254;-72
2021/08/04 01:03:29;;;;;;;;;;;;;;;25.32;51.03;100618.75;4970215;28;1101;-72
2021/08/04 01:05:59;;;;;;;;;;;;;;;25.30;51.11;100626.06;4959601;28;1384;-72
2021/08/04 01:08:30;;;;;;;;;;;;;;;25.28;50.63;100621.84;4953302;28;1046;-72
2021/08/04 01:10:57;;;;;;;;;;;;;;;25.30;50.65;100619.88;4950583;28;1430;-72
2021/08/04 01:13:27;;;;;;;;;;;;;;;25.33;51.46;100617.78;4951087;29;1043;-72
2021/08/04 01:15:53;;;;;;;;;;;;;;;25.25;50.85;100622.09;4950726;29;1911;-72
2021/08/04 01:18:22;;;;;;;;;;;;;;;25.28;50.94;100621.84;4950904;28;1127;-72
2021/08/04 01:20:49;;;;;;;;;;;;;;;25.27;50.85;100617.47;4950698;29;1246;-72
2021/08/04 01:23:34;;;;;;;;;;;;;;;25.26;51.27;100623.81;4951052;29;1018;-71
2021/08/04 01:26:06;;;;;;;;;;;;;;;25.24;51.23;100620.41;4949915;28;1210;-70
2021/08/04 01:28:38;;;;;;;;;;;;;;;25.27;51.54;100610.31;4950445;29;1081;-72
2021/08/04 01:31:07;;;;;;;;;;;;;;;25.23;51.87;100610.75;4950100;29;1237;-72
2021/08/04 01:33:36;;;;;;;;;;;;;;;25.22;52.00;100611.69;4950239;29;1327;-72
2021/08/04 01:36:03;;;;;;;;;;;;;;;25.22;52.17;100604.56;4950323;29;1911;-71
2021/08/04 01:38:31;;;;;;;;;;;;;;;25.28;52.29;100605.84;4950170;29;1047;-72
2021/08/04 01:40:59;;;;;;;;;;;;;;;25.19;52.55;100596.81;4932465;29;1301;-71
2021/08/04 01:43:26;;;;;;;;;;;;;;;25.20;52.97;100597.66;4950272;28;1121;-72
2021/08/04 01:45:56;;;;;;;;;;;;;;;25.20;52.99;100600.34;4949780;29;1230;-72
2021/08/04 01:48:24;;;;;;;;;;;;;;;25.20;53.01;100597.66;4949679;29;1093;-72
2021/08/04 01:50:52;;;;;;;;;;;;;;;25.17;53.47;100588.09;4932603;29;1246;-71
2021/08/04 01:53:19;;;;;;;;;;;;;;;25.19;53.57;100591.50;4950253;28;1061;-72
2021/08/04 01:55:46;;;;;;;;;;;;;;;25.20;53.45;100576.34;4949931;28;1914;-72
2021/08/04 01:58:13;;;;;;;;;;;;;;;25.27;53.14;100572.16;4950235;29;1049;-72
2021/08/04 02:00:40;;;;;;;;;;;;;;;25.23;53.19;100568.91;4949880;28;1230;-72
2021/08/04 02:03:06;;;;;;;;;;;;;;;25.19;53.70;100570.16;4950260;29;1189;-72
2021/08/04 02:05:34;;;;;;;;;;;;;;;25.19;53.53;100570.16;4932378;29;1197;-72
2021/08/04 02:08:15;;;;;;;;;;;;;;;25.18;53.62;100567.63;4953328;28;1123;-71
2021/08/04 02:10:48;;;;;;;;;;;;;;;25.18;53.69;100563.13;4936073;29;1516;-72
2021/08/04 02:13:39;;;;;;;;;;;;;;;25.23;53.59;100570.75;4953699;29;1077;-72
2021/08/04 02:16:33;;;;;;;;;;;;;;;25.27;53.83;100554.34;4954105;29;1978;-72
2021/08/04 02:19:15;;;;;;;;;;;;;;;25.26;53.83;100563.31;4959465;28;1523;-72
2021/08/04 02:21:43;;;;;;;;;;;;;;;25.23;53.88;100560.91;4962376;28;1410;-72
2021/08/04 02:24:12;;;;;;;;;;;;;;;25.20;53.93;100561.16;4962882;28;1152;-72
2021/08/04 02:26:39;;;;;;;;;;;;;;;25.22;53.85;100569.91;4953745;28;1308;-71
2021/08/04 02:29:07;;;;;;;;;;;;;;;25.24;53.58;100559.94;4954010;29;1249;-72
2021/08/04 02:31:34;;;;;;;;;;;;;;;25.17;54.02;100548.13;4953220;28;1202;-71
2021/08/04 02:34:02;;;;;;;;;;;;;;;25.19;53.96;100542.66;4953148;28;1915;-72
2021/08/04 02:36:29;;;;;;;;;;;;;;;25.22;53.66;100553.91;4953238;28;1277;-72
2021/08/04 02:39:01;;;;;;;;;;;;;;;25.19;54.05;100550.66;4953508;29;1029;-71
2021/08/04 02:41:29;;;;;;;;;;;;;;;25.24;53.54;100543.09;4919919;29;1326;-71
2021/08/04 02:43:56;;;;;;;;;;;;;;;25.22;53.98;100543.25;4953234;29;1142;-71
2021/08/04 02:46:23;;;;;;;;;;;;;;;25.19;54.00;100538.19;4952451;28;1324;-71
2021/08/04 02:48:50;;;;;;;;;;;;;;;25.17;53.38;100529.44;4952726;29;1174;-72
2021/08/04 02:51:18;;;;;;;;;;;;;;;25.19;53.21;100526.66;4952767;28;1316;-72
2021/08/04 02:53:45;;;;;;;;;;;;;;;25.19;53.10;100527.53;4953273;29;1157;-72
2021/08/04 02:56:12;;;;;;;;;;;;;;;25.22;52.92;100532.59;4952891;29;1914;-73
2021/08/04 02:58:38;;;;;;;;;;;;;;;25.20;53.01;100528.38;4953084;28;922;-71
2021/08/04 03:01:06;;;;;;;;;;;;;;;25.18;52.87;100525.81;4952936;28;1190;-71
2021/08/04 03:03:33;;;;;;;;;;;;;;;25.16;53.05;100519.78;4952663;29;1057;-72
2021/08/04 03:06:00;;;;;;;;;;;;;;;25.18;52.61;100525.81;4952463;28;1297;-71
2021/08/04 03:08:27;;;;;;;;;;;;;;;25.15;52.93;100528.75;4952779;29;1140;-71
2021/08/04 03:10:54;;;;;;;;;;;;;;;25.19;52.74;100532.84;4952409;28;1565;-71
2021/08/04 03:13:22;;;;;;;;;;;;;;;25.16;52.86;100526.94;4952264;29;1011;-71
2021/08/04 03:15:48;;;;;;;;;;;;;;;25.21;53.08;100524.69;4934811;29;2001;-71
2021/08/04 03:18:15;;;;;;;;;;;;;;;25.19;52.70;100516.84;4934447;29;1195;-71
2021/08/04 03:20:42;;;;;;;;;;;;;;;25.20;53.06;100518.53;4952393;29;1340;-72
2021/08/04 03:23:09;;;;;;;;;;;;;;;25.20;53.21;100523.84;4952638;29;1142;-71
2021/08/04 03:25:35;;;;;;;;;;;;;;;25.22;53.10;100516.59;4952283;28;1324;-72
2021/08/04 03:28:02;;;;;;;;;;;;;;;25.13;52.97;100517.38;4952472;29;1042;-71
2021/08/04 03:30:28;;;;;;;;;;;;;;;25.16;53.19;100519.78;4952374;29;1238;-72
2021/08/04 03:32:55;;;;;;;;;;;;;;;25.17;53.00;100521.47;4952117;29;1361;-72
2021/08/04 03:35:22;;;;;;;;;;;;;;;25.15;53.15;100525.25;4934888;29;1988;-71
2021/08/04 03:37:48;;;;;;;;;;;;;;;25.13;53.68;100529.88;4934741;29;1161;-71
2021/08/04 03:40:15;;;;;;;;;;;;;;;25.13;53.23;100530.72;4953863;28;1382;-71
2021/08/04 03:42:42;;;;;;;;;;;;;;;25.20;53.41;100528.38;4960242;28;1111;-71
2021/08/04 03:45:09;;;;;;;;;;;;;;;25.18;53.55;100520.50;4970632;28;1241;-71
2021/08/04 03:47:36;;;;;;;;;;;;;;;25.21;53.50;100519.38;4952468;28;1004;-71
2021/08/04 03:50:03;;;;;;;;;;;;;;;25.18;53.47;100511.66;4951786;28;1178;-71
2021/08/04 03:52:30;;;;;;;;;;;;;;;25.12;53.79;100509.50;4952068;28;1255;-71
2021/08/04 03:54:56;;;;;;;;;;;;;;;25.14;53.76;100512.91;4951233;29;1975;-71
2021/08/04 03:57:23;;;;;;;;;;;;;;;25.18;54.04;100499.16;4950908;29;1085;-71
2021/08/04 03:59:50;;;;;;;;;;;;;;;25.16;54.22;100501.13;4934118;29;1249;-71
2021/08/04 04:02:17;;;;;;;;;;;;;;;25.13;54.63;100505.88;4951692;28;1278;-71
2021/08/04 04:04:44;;;;;;;;;;;;;;;25.15;54.62;100509.25;4934563;29;1214;-71
2021/08/04 04:07:12;;;;;;;;;;;;;;;25.13;54.70;100512.06;4951573;28;1120;-71
2021/08/04 04:09:39;;;;;;;;;;;;;;;25.12;54.73;100513.03;4951524;28;1526;-71
2021/08/04 04:12:06;;;;;;;;;;;;;;;25.06;54.98;100500.25;4960428;28;1543;-71
2021/08/04 04:14:32;;;;;;;;;;;;;;;25.19;54.61;100506.19;4968539;28;1911;-72
2021/08/04 04:16:59;;;;;;;;;;;;;;;25.21;55.11;100517.56;4952018;28;1084;-73
2021/08/04 04:19:26;;;;;;;;;;;;;;;25.16;55.07;100508.28;4956300;28;1249;-72
2021/08/04 04:21:53;;;;;;;;;;;;;;;25.11;55.35;100514.00;4970927;28;759;-72
2021/08/04 04:24:19;;;;;;;;;;;;;;;25.06;55.66;100526.88;4970228;28;1198;-72
2021/08/04 04:26:46;;;;;;;;;;;;;;;25.09;55.46;100545.28;4951483;29;1217;-72
2021/08/04 04:29:13;;;;;;;;;;;;;;;25.17;55.77;100549.97;4950910;28;1144;-72
2021/08/04 04:31:39;;;;;;;;;;;;;;;25.16;55.64;100541.13;4933659;29;1259;-72
2021/08/04 04:34:06;;;;;;;;;;;;;;;25.12;55.72;100541.50;4951277;29;1215;-72
2021/08/04 04:36:33;;;;;;;;;;;;;;;25.10;55.92;100549.66;4951447;29;1918;-72
2021/08/04 04:38:59;;;;;;;;;;;;;;;25.10;56.13;100554.97;4953872;28;1616;-72
2021/08/04 04:41:26;;;;;;;;;;;;;;;25.08;56.42;100559.56;4950716;28;1226;-72
2021/08/04 04:43:53;;;;;;;;;;;;;;;25.10;55.87;100560.31;4946852;28;1158;-73
2021/08/04 04:46:20;;;;;;;;;;;;;;;25.07;56.03;100560.56;4970261;28;1306;-72
2021/08/04 04:48:46;;;;;;;;;;;;;;;25.10;55.84;100564.78;4970753;28;1050;-72
2021/08/04 04:51:13;;;;;;;;;;;;;;;25.08;56.20;100580.88;4951362;28;1210;-72
2021/08/04 04:53:40;;;;;;;;;;;;;;;25.15;55.56;100594.53;4951081;28;1267;-71
2021/08/04 04:56:06;;;;;;;;;;;;;;;25.08;56.04;100588.88;4950936;29;1903;-72
2021/08/04 04:58:33;;;;;;;;;;;;;;;25.09;55.80;100595.06;4951085;29;1055;-72
2021/08/04 05:01:00;;;;;;;;;;;;;;;25.10;55.97;100594.09;4957284;28;1558;-72
2021/08/04 05:03:27;;;;;;;;;;;;;;;25.12;55.70;100600.97;4961267;28;1077;-72
2021/08/04 05:05:54;;;;;;;;;;;;;;;25.07;55.94;100597.88;4952536;28;1431;-72
2021/08/04 05:08:20;;;;;;;;;;;;;;;25.08;55.83;100602.22;4952095;28;1104;-72
2021/08/04 05:10:48;;;;;;;;;;;;;;;25.08;56.11;100602.22;4969039;28;1212;-72
2021/08/04 05:13:15;;;;;;;;;;;;;;;25.12;55.85;100595.66;4969887;28;1156;-71
2021/08/04 05:15:41;;;;;;;;;;;;;;;25.14;56.08;100569.69;4951970;28;1984;-72
2021/08/04 05:18:08;;;;;;;;;;;;;;;25.14;55.93;100574.22;4965598;28;1503;-69
2021/08/04 05:20:35;;;;;;;;;;;;;;;25.19;56.01;100579.97;4958063;28;1328;-70
2021/08/04 05:23:02;;;;;;;;;;;;;;;25.19;56.20;100580.81;4949596;29;1124;-70
2021/08/04 05:25:29;;;;;;;;;;;;;;;25.22;56.22;100595.72;4949872;29;1202;-70
2021/08/04 05:27:55;;;;;;;;;;;;;;;25.24;56.48;100613.25;4955506;28;1606;-69
2021/08/04 05:30:22;;;;;;;;;;;;;;;25.20;56.28;100611.00;4962966;28;1221;-70
2021/08/04 05:32:49;;;;;;;;;;;;;;;25.16;56.63;100607.75;4965284;28;1421;-70
2021/08/04 05:35:15;;;;;;;;;;;;;;;25.09;57.04;100595.91;4957577;28;1907;-69
2021/08/04 05:37:42;;;;;;;;;;;;;;;25.14;56.85;100580.34;4932112;29;1088;-71
2021/08/04 05:40:13;;;;;;;;;;;;;;;25.13;56.66;100581.34;4932494;29;1357;-70
2021/08/04 05:42:40;;;;;;;;;;;;;;;25.17;56.70;100581.94;4949412;28;1053;-71
2021/08/04 05:45:07;;;;;;;;;;;;;;;25.16;56.56;100581.09;4949818;29;1207;-70
2021/08/04 05:47:34;;;;;;;;;;;;;;;25.18;56.52;100579.13;4949318;29;1097;-73
2021/08/04 05:50:01;;;;;;;;;;;;;;;25.15;56.86;100578.53;4948931;28;1198;-71
2021/08/04 05:52:28;;;;;;;;;;;;;;;25.15;57.09;100568.72;4951472;28;1408;-72
2021/08/04 05:54:55;;;;;;;;;;;;;;;25.19;56.53;100556.00;4955240;28;1986;-72
2021/08/04 05:57:22;;;;;;;;;;;;;;;25.15;56.95;100551.91;4949199;28;1109;-72
2021/08/04 05:59:48;;;;;;;;;;;;;;;25.07;57.67;100555.25;4931779;29;1234;-72
2021/08/04 06:02:15;;;;;;;;;;;;;;;25.08;57.38;100553.41;4948957;29;1089;-73
2021/08/04 06:04:42;;;;;;;;;;;;;;;25.12;58.13;100562.81;4949227;28;1296;-74
2021/08/04 06:07:11;;;;;;;;;;;;;;;25.17;57.74;100563.28;4949071;29;1063;-71
2021/08/04 06:09:38;;;;;;;;;;;;;;;25.15;58.21;100562.56;4948978;28;1761;-73
2021/08/04 06:12:06;;;;;;;;;;;;;;;25.17;58.06;100565.94;4948846;29;1148;-76
2021/08/04 06:14:33;;;;;;;;;;;;;;;25.17;57.93;100569.44;4948798;28;1178;-73
2021/08/04 06:16:59;;;;;;;;;;;;;;;25.16;58.39;100570.44;4949115;29;1976;-73
2021/08/04 06:19:26;;;;;;;;;;;;;;;25.17;58.33;100569.44;4958906;28;1484;-73
2021/08/04 06:21:53;;;;;;;;;;;;;;;25.23;57.73;100568.91;4948969;29;811;-73
2021/08/04 06:24:19;;;;;;;;;;;;;;;25.17;57.42;100569.44;4931722;29;1145;-75
2021/08/04 06:26:46;;;;;;;;;;;;;;;25.20;56.87;100558.50;4949118;29;1250;-75
2021/08/04 06:29:13;;;;;;;;;;;;;;;25.23;56.41;100557.41;4949731;28;1184;-73
2021/08/04 06:31:39;;;;;;;;;;;;;;;25.04;56.68;100539.50;4949445;29;1318;-75
2021/08/04 06:34:06;;;;;;;;;;;;;;;25.18;56.66;100539.16;4940609;28;1254;-74
2021/08/04 06:36:33;;;;;;;;;;;;;;;25.23;56.32;100533.44;4979869;28;1903;-72
2021/08/04 06:38:59;;;;;;;;;;;;;;;25.23;56.39;100541.44;4968689;28;1049;-73
2021/08/04 06:41:26;;;;;;;;;;;;;;;25.14;56.38;100543.03;4950435;28;1241;-74
2021/08/04 06:43:53;;;;;;;;;;;;;;;25.13;56.45;100527.19;4954765;28;1426;-73
2021/08/04 06:46:20;;;;;;;;;;;;;;;25.19;56.24;100516.84;4987926;28;1205;-73
2021/08/04 06:48:46;;;;;;;;;;;;;;;25.12;56.83;100513.03;4970336;28;1126;-74
2021/08/04 06:51:16;;;;;;;;;;;;;;;25.14;56.77;100508.41;4970581;28;1573;-73
2021/08/04 06:53:48;;;;;;;;;;;;;;;25.18;56.35;100507.16;4956829;28;1178;-74
2021/08/04 06:56:15;;;;;;;;;;;;;;;25.15;55.17;100530.56;4974198;28;1898;-74
2021/08/04 06:58:42;;;;;;;;;;;;;;;25.16;55.14;100541.13;4991304;28;1029;-71
2021/08/04 07:01:09;;;;;;;;;;;;;;;25.20;55.17;100549.69;4974454;28;1257;-72
2021/08/04 07:03:38;;;;;;;;;;;;;;;25.18;55.26;100571.13;4974095;28;1133;-71
2021/08/04 07:06:06;;;;;;;;;;;;;;;25.12;55.83;100577.00;4991199;28;1339;-72
2021/08/04 07:08:32;;;;;;;;;;;;;;;25.10;56.45;100586.09;4973359;28;1163;-72
2021/08/04 07:10:59;;;;;;;;;;;;;;;25.13;56.45;100575.19;4991235;28;1408;-72
2021/08/04 07:13:26;;;;;;;;;;;;;;;25.19;56.21;100574.66;4973352;28;1292;-72
2021/08/04 07:15:53;;;;;;;;;;;;;;;25.16;57.74;100577.56;4990929;28;1973;-71
2021/08/04 07:18:19;;;;;;;;;;;;;;;25.18;58.21;100572.94;4973415;28;1132;-72
2021/08/04 07:20:46;;;;;;;;;;;;;;;25.26;58.37;100575.81;4990778;28;1261;-72
2021/08/04 07:23:13;;;;;;;;;;;;;;;25.21;59.01;100573.53;4991118;28;1141;-71
2021/08/04 07:25:40;;;;;;;;;;;;;;;25.21;58.37;100584.19;4972504;28;1327;-72
2021/08/04 07:28:07;;;;;;;;;;;;;;;25.25;59.21;100574.97;4963109;28;1408;-71
2021/08/04 07:30:34;;;;;;;;;;;;;;;25.27;59.04;100572.16;4960031;28;1584;-68
2021/08/04 07:33:01;;;;;;;;;;;;;;;25.28;59.82;100580.03;4968357;28;1579;-67
2021/08/04 07:35:27;;;;;;;;;;;;;;;25.28;60.12;100574.69;4987882;28;2001;-69
2021/08/04 07:37:54;;;;;;;;;;;;;;;25.35;59.72;100580.34;4990971;28;1083;-68
2021/08/04 07:40:21;;;;;;;;;;;;;;;25.31;60.67;100585.09;4990476;28;1377;-67
2021/08/04 07:42:51;;;;;;;;;;;;;;;25.40;60.25;100594.13;4972735;28;1264;-67
2021/08/04 07:45:18;;;;;;;;;;;;;;;25.43;60.09;100591.19;4972662;28;1441;-67
2021/08/04 07:47:45;;;;;;;;;;;;;;;25.47;60.22;100588.09;4990581;28;1141;-66
2021/08/04 07:50:13;;;;;;;;;;;;;;;25.45;61.08;100582.06;4989890;28;1273;-69
2021/08/04 07:52:40;;;;;;;;;;;;;;;25.48;60.49;100579.16;4989479;28;1201;-67
2021/08/04 07:55:07;;;;;;;;;;;;;;;25.57;60.69;100579.31;4989946;28;1237;-75
2021/08/04 07:57:34;;;;;;;;;;;;;;;25.62;61.15;100577.09;4990603;28;1910;-68
2021/08/04 08:00:01;;;;;;;;;;;;;;;25.66;61.73;100576.69;4990179;28;1304;-69
2021/08/04 08:02:28;;;;;;;;;;;;;;;25.67;62.08;100572.19;4990741;28;1043;-67
2021/08/04 08:04:57;;;;;;;;;;;;;;;25.68;62.19;100590.75;4990417;28;1295;-69
2021/08/04 08:07:24;;;;;;;;;;;;;;;25.64;63.05;100585.81;4989722;28;953;-69
2021/08/04 08:09:51;;;;;;;;;;;;;;;25.62;62.33;100583.28;4972212;28;1490;-70
2021/08/04 08:12:18;;;;;;;;;;;;;;;25.61;63.33;100588.75;4971943;28;1037;-69
2021/08/04 08:14:45;;;;;;;;;;;;;;;25.63;63.03;100592.09;4989451;28;1253;-68
2021/08/04 08:17:11;;;;;;;;;;;;;;;25.65;63.54;100600.84;4989769;28;1914;-68
2021/08/04 08:19:39;;;;;;;;;;;;;;;25.59;63.85;100606.72;4973747;28;1582;-69
2021/08/04 08:22:06;;;;;;;;;;;;;;;25.56;62.23;100601.66;4970642;28;1093;-72
2021/08/04 08:24:33;;;;;;;;;;;;;;;25.62;63.86;100607.28;4970461;28;1315;-68
2021/08/04 08:27:00;;;;;;;;;;;;;;;25.65;64.93;100614.19;4970393;28;1004;-68
2021/08/04 08:29:26;;;;;;;;;;;;;;;25.62;64.29;100609.13;4969682;28;1226;-70
2021/08/04 08:31:53;;;;;;;;;;;;;;;25.68;65.61;100605.91;4970944;28;792;-69
2021/08/04 08:34:20;;;;;;;;;;;;;;;25.69;65.05;100605.75;4937060;28;1268;-69
2021/08/04 08:36:46;;;;;;;;;;;;;;;25.66;65.64;100605.19;4970384;28;1903;-70
2021/08/04 08:39:13;;;;;;;;;;;;;;;25.65;65.56;100603.50;4953684;28;941;-70
2021/08/04 08:41:40;;;;;;;;;;;;;;;25.69;64.37;100604.91;4970941;28;1309;-69
2021/08/04 08:44:07;;;;;;;;;;;;;;;25.73;63.75;100611.66;4970297;28;1306;-70
2021/08/04 08:46:34;;;;;;;;;;;;;;;25.73;64.55;100617.00;4953397;28;1316;-71
2021/08/04 08:49:01;;;;;;;;;;;;;;;25.73;64.10;100614.34;4970581;28;1154;-70
2021/08/04 08:51:28;;;;;;;;;;;;;;;25.70;62.39;100611.94;4970319;28;1303;-70
2021/08/04 08:53:55;;;;;;;;;;;;;;;25.72;63.80;100608.16;4970509;28;1099;-71
2021/08/04 08:56:21;;;;;;;;;;;;;;;25.71;64.07;100610.97;4970216;28;1910;-70
2021/08/04 08:58:49;;;;;;;;;;;;;;;25.70;62.55;100607.47;4952415;28;1272;-71
2021/08/04 09:01:16;;;;;;;;;;;;;;;25.77;61.83;100607.75;4969843;28;1242;-70
2021/08/04 09:03:43;;;;;;;;;;;;;;;25.76;60.96;100622.91;4971175;28;1141;-70
2021/08/04 09:06:41;;;;;;;;;;;;;;;25.74;60.86;100624.03;4970550;28;1397;-70
2021/08/04 09:09:19;;;;;;;;;;;;;;;25.74;61.09;100629.38;4953778;28;1290;-69
2021/08/04 09:12:09;;;;;;;;;;;;;;;25.71;61.08;100630.50;4952183;28;1485;-71
2021/08/04 09:14:44;;;;;;;;;;;;;;;25.75;60.09;100631.88;4953623;28;1246;-70
2021/08/04 09:17:16;;;;;;;;;;;;;;;25.76;60.71;100644.25;4971004;28;1972;-72
2021/08/04 09:19:48;;;;;;;;;;;;;;;25.75;60.76;100625.72;4971274;28;1198;-70
2021/08/04 09:22:23;;;;;;;;;;;;;;;25.76;60.52;100625.59;4952850;28;1116;-71
2021/08/04 09:25:09;;;;;;;;;;;;;;;25.74;60.53;100630.22;4953353;28;1277;-71
2021/08/04 09:27:37;;;;;;;;;;;;;;;25.76;60.13;100633.59;4970202;28;1152;-70
2021/08/04 09:30:05;;;;;;;;;;;;;;;25.74;60.43;100632.91;4969930;28;1343;-71
2021/08/04 09:32:32;;;;;;;;;;;;;;;25.74;60.51;100634.72;4951726;28;1155;-70
2021/08/04 09:35:09;;;;;;;;;;;;;;;25.78;59.45;100636.09;4969068;28;1254;-71
2021/08/04 09:37:36;;;;;;;;;;;;;;;25.79;59.45;100637.81;4969709;28;1906;-69
2021/08/04 09:40:04;;;;;;;;;;;;;;;25.80;59.32;100634.16;4952480;28;1238;-68
2021/08/04 09:42:50;;;;;;;;;;;;;;;25.83;59.35;100633.91;4969348;28;1054;-70
2021/08/04 09:45:18;;;;;;;;;;;;;;;25.80;59.44;100628.84;4969159;28;1237;-72
2021/08/04 09:47:55;;;;;;;;;;;;;;;25.80;59.68;100631.50;4969270;28;1087;-71
2021/08/04 09:50:22;;;;;;;;;;;;;;;25.83;58.89;100623.22;4969306;28;1210;-71
2021/08/04 09:52:56;;;;;;;;;;;;;;;25.82;58.66;100622.38;4969371;28;1438;-71
2021/08/04 09:55:23;;;;;;;;;;;;;;;25.81;59.52;100620.69;4951666;28;1359;-72
2021/08/04 09:57:51;;;;;;;;;;;;;;;25.81;59.71;100619.81;4952062;28;1919;-71
2021/08/04 10:00:21;;;;;;;;;;;;;;;25.80;59.60;100616.34;4969395;28;1332;-69
2021/08/04 10:02:48;;;;;;;;;;;;;;;25.79;59.81;100611.13;4951912;28;1135;-70
2021/08/04 10:05:15;;;;;;;;;;;;;;;25.79;59.42;100603.13;4969145;28;1232;-69
2021/08/04 10:08:09;;;;;;;;;;;;;;;25.82;59.73;100610.84;4951807;28;1149;-70
2021/08/04 10:10:43;;;;;;;;;;;;;;;25.83;59.36;100604.56;4951032;28;1604;-70
2021/08/04 10:13:14;;;;;;;;;;;;;;;25.83;59.52;100609.88;4969422;28;1095;-68
2021/08/04 10:15:42;;;;;;;;;;;;;;;25.84;59.65;100603.56;4952125;28;1262;-69
2021/08/04 10:18:13;;;;;;;;;;;;;;;25.86;58.64;100609.63;4969201;28;1914;-71
2021/08/04 10:20:40;;;;;;;;;;;;;;;25.87;58.90;100627.31;4969292;28;1226;-70
2021/08/04 10:23:08;;;;;;;;;;;;;;;25.87;59.67;100604.13;4951805;28;1282;-70
2021/08/04 10:25:35;;;;;;;;;;;;;;;25.88;58.97;100597.81;4968517;28;1376;-70
2021/08/04 10:28:03;;;;;;;;;;;;;;;25.89;59.19;100585.31;4971075;28;1144;-71
2021/08/04 10:30:30;;;;;;;;;;;;;;;25.94;59.85;100581.25;4954707;28;1789;-72
2021/08/04 10:32:57;;;;;;;;;;;;;;;25.98;60.26;100590.69;4970513;28;1404;-70
2021/08/04 10:35:24;;;;;;;;;;;;;;;26.02;59.58;100597.41;4947913;28;1396;-71
2021/08/04 10:37:51;;;;;;;;;;;;;;;26.07;60.84;100595.19;4952007;28;1914;-66
2021/08/04 10:40:18;;;;;;;;;;;;;;;26.03;61.24;100583.09;4971050;28;1261;-67
2021/08/04 10:42:46;;;;;;;;;;;;;;;26.13;61.58;100588.47;4970638;28;1105;-72
2021/08/04 10:45:26;;;;;;;;;;;;;;;26.05;60.05;100585.66;4968553;28;1166;-67
2021/08/04 10:47:58;;;;;;;;;;;;;;;26.00;59.11;100587.88;4969304;28;1036;-68
2021/08/04 10:50:26;;;;;;;;;;;;;;;26.02;59.65;100585.91;4973515;28;1312;-71
2021/08/04 10:52:59;;;;;;;;;;;;;;;26.03;60.79;100582.25;4970563;28;1268;-67
2021/08/04 10:55:26;;;;;;;;;;;;;;;26.01;60.07;100585.06;4988184;28;1229;-67
2021/08/04 10:58:05;;;;;;;;;;;;;;;26.01;61.02;100582.41;4972377;28;1923;-66
2021/08/04 11:00:33;;;;;;;;;;;;;;;26.01;61.14;100573.53;4991481;28;1242;-62
2021/08/04 11:03:00;;;;;;;;;;;;;;;26.03;61.98;100582.25;4992080;28;1034;-62
2021/08/04 11:05:46;;;;;;;;;;;;;;;26.03;61.36;100582.25;4992058;28;1221;-62
2021/08/04 11:08:15;;;;;;;;;;;;;;;26.02;60.65;100584.06;4991620;28;1001;-63
2021/08/04 11:10:42;;;;;;;;;;;;;;;26.04;61.17;100586.63;4971988;28;1320;-66
2021/08/04 11:13:08;;;;;;;;;;;;;;;26.03;60.34;100584.91;4953860;28;1183;-64
2021/08/04 11:15:35;;;;;;;;;;;;;;;26.00;59.34;100575.38;4955190;28;1226;-64
2021/08/04 11:18:05;;;;;;;;;;;;;;;26.01;61.41;100582.41;4974170;28;1914;-65
2021/08/04 11:20:32;;;;;;;;;;;;;;;25.97;60.75;100575.66;4991814;28;1289;-65
2021/08/04 11:22:59;;;;;;;;;;;;;;;26.05;60.98;100574.97;4991998;28;1001;-66
2021/08/04 11:25:31;;;;;;;;;;;;;;;26.05;60.54;100582.97;4991414;28;1261;-64
2021/08/04 11:27:58;;;;;;;;;;;;;;;26.03;59.41;100582.25;4973864;28;930;-65
2021/08/04 11:30:27;;;;;;;;;;;;;;;26.04;60.35;100583.94;4991128;28;1237;-67
2021/08/04 11:33:29;;;;;;;;;;;;;;;26.03;61.00;100598.25;4991400;28;1105;-67
2021/08/04 11:36:10;;;;;;;;;;;;;;;26.03;59.46;100591.09;4990552;28;1177;-66
2021/08/04 11:38:43;;;;;;;;;;;;;;;26.04;61.28;100578.59;4990266;28;1911;-66
2021/08/04 11:41:21;;;;;;;;;;;;;;;26.04;60.76;100560.78;4978742;28;1217;-65
2021/08/04 11:43:48;;;;;;;;;;;;;;;26.00;59.91;100561.19;4971718;28;949;-66
2021/08/04 11:46:34;;;;;;;;;;;;;;;26.03;60.82;100568.91;4977576;28;1254;-66
2021/08/04 11:49:03;;;;;;;;;;;;;;;26.03;60.64;100566.22;4991750;28;1179;-66
2021/08/04 11:51:50;;;;;;;;;;;;;;;26.03;61.18;100560.91;4961121;28;1254;-66
2021/08/04 11:54:27;;;;;;;;;;;;;;;26.06;62.57;100565.97;4990769;28;1070;-67
2021/08/04 11:56:54;;;;;;;;;;;;;;;26.08;61.80;100569.34;4990757;28;1914;-65
2021/08/04 11:59:21;;;;;;;;;;;;;;;26.04;60.93;100568.78;4991399;28;910;-66
2021/08/04 12:01:58;;;;;;;;;;;;;;;26.06;62.48;100573.97;4962904;28;1388;-66
2021/08/04 12:04:25;;;;;;;;;;;;;;;26.06;62.35;100576.63;4972080;28;1376;-65
2021/08/04 12:07:08;;;;;;;;;;;;;;;26.06;61.22;100565.97;4982958;28;1015;-65
2021/08/04 12:09:36;;;;;;;;;;;;;;;26.15;61.00;100559.81;4973265;28;1670;-67
2021/08/04 12:12:03;;;;;;;;;;;;;;;26.16;62.55;100561.50;4975892;28;1211;-65
2021/08/04 12:14:34;;;;;;;;;;;;;;;26.16;62.03;100550.00;4951314;28;1194;-68
2021/08/04 12:17:22;;;;;;;;;;;;;;;26.19;62.09;100542.53;4984351;28;1911;-68
2021/08/04 12:19:49;;;;;;;;;;;;;;;26.18;61.73;100546.19;4973147;28;1249;-73
2021/08/04 12:22:25;;;;;;;;;;;;;;;26.20;63.35;100544.25;4947474;28;1333;-72
2021/08/04 12:24:56;;;;;;;;;;;;;;;26.18;62.95;100546.19;4971395;28;1289;-75
2021/08/04 12:27:35;;;;;;;;;;;;;;;26.18;62.95;100548.84;4976564;28;1109;-75
2021/08/04 12:30:08;;;;;;;;;;;;;;;26.27;63.32;100542.69;4956246;28;1507;-70
2021/08/04 12:32:53;;;;;;;;;;;;;;;26.24;62.31;100547.44;4963635;28;1398;-72
2021/08/04 12:35:38;;;;;;;;;;;;;;;26.21;62.61;100545.06;4969550;28;1324;-74
2021/08/04 12:38:09;;;;;;;;;;;;;;;26.24;63.11;100542.97;4989160;28;1934;-71
2021/08/04 12:40:37;;;;;;;;;;;;;;;26.28;63.09;100539.03;4988576;28;1317;-72
2021/08/04 12:43:07;;;;;;;;;;;;;;;26.22;62.78;100518.25;4970622;28;1129;-69
2021/08/04 12:45:34;;;;;;;;;;;;;;;26.22;62.82;100512.91;4967675;28;1549;-76
2021/08/04 12:48:02;;;;;;;;;;;;;;;26.25;62.96;100509.09;4976266;28;1377;-72
2021/08/04 12:50:47;;;;;;;;;;;;;;;26.33;63.31;100510.06;4952721;28;1320;-71
2021/08/04 12:53:23;;;;;;;;;;;;;;;26.30;62.44;100514.84;4949686;29;1068;-67
2021/08/04 12:56:09;;;;;;;;;;;;;;;26.32;62.81;100519.09;4957583;28;1336;-67
2021/08/04 12:58:54;;;;;;;;;;;;;;;26.29;62.41;100519.38;4989245;28;1910;-67